This is the latest recevied weather packets stored in our database for station/object 1NW106. If no packets are shown the sender has not sent any weather packets the latest 10 day(s).
| Time | Temp. | Humidity | Pressure | Rain* | Wind** | Luminosity | Snow |
|---|---|---|---|---|---|---|---|
| 1787805581 | 28.89° C | 80% | 1009.2 hPa | 14.73 mm | - | - | - |
| 1787804969 | 28.89° C | 80% | 1009.3 hPa | 14.73 mm | - | - | - |
| 1787804369 | 28.33° C | 83% | 1009.1 hPa | 14.73 mm | - | - | - |
| 1787803769 | 28.33° C | 86% | 1009 hPa | 14.73 mm | - | - | - |
| 1787803174 | 28.33° C | 89% | 1008.5 hPa | 14.73 mm | - | - | - |
| 1787802571 | 27.78° C | 90% | 1008.4 hPa | 14.73 mm | - | - | - |
| 1787801969 | 27.78° C | 90% | 1008.4 hPa | 14.73 mm | - | - | - |
| 1787801369 | 27.78° C | 91% | 1008.5 hPa | 14.73 mm | - | - | - |
| 1787800770 | 27.78° C | 89% | 1008.7 hPa | 14.73 mm | - | - | - |
| 1787800173 | 28.33° C | 86% | 1009 hPa | 14.73 mm | - | - | - |
| 1787799569 | 27.78° C | 85% | 1009.1 hPa | 14.73 mm | - | - | - |
| 1787798969 | 27.78° C | 84% | 1009.1 hPa | 14.73 mm | - | - | - |
| 1787798376 | 27.78° C | 84% | 1009.1 hPa | 14.73 mm | - | - | - |
| 1787797769 | 28.33° C | 80% | 1009.3 hPa | 14.73 mm | - | - | - |
| 1787797169 | 28.89° C | 83% | 1009.2 hPa | 14.73 mm | - | - | - |
| 1787796569 | 27.78° C | 84% | 1009 hPa | 14.73 mm | - | - | - |
| 1787795969 | 27.22° C | 88% | 1008.6 hPa | 14.73 mm | - | - | - |
| 1787795369 | 27.78° C | 86% | 1008.7 hPa | 14.73 mm | - | - | - |
| 1787794769 | 27.22° C | 88% | 1008.4 hPa | 14.73 mm | - | - | - |
| 1787794169 | 26.67° C | 89% | 1008.1 hPa | 14.73 mm | - | - | - |
| 1787793569 | 26.11° C | 93% | 1007.4 hPa | 14.73 mm | - | - | - |
| 1787792970 | 26.11° C | 95% | 1007.2 hPa | 14.73 mm | - | - | - |
| 1787792369 | 25.56° C | 98% | 1006.5 hPa | 14.73 mm | - | - | - |
| 1787791769 | 25° C | 99% | 1006.2 hPa | 14.73 mm | - | - | - |
| 1787791169 | 25° C | 99% | 1005.8 hPa | 14.73 mm | - | - | - |
* Rain latest hour (hover to see other rain measurements)
** Current wind speed in m/s (hover to see current wind gust speed)